createdAt,value
2019-05-07T00:01:17.222Z,10.20
2019-05-07T00:03:49.181Z,10.10
2019-05-07T00:06:22.926Z,10.10
2019-05-07T00:08:52.950Z,10.00
2019-05-07T00:11:24.205Z,9.90
2019-05-07T00:13:55.764Z,9.80
2019-05-07T00:16:27.558Z,9.80
2019-05-07T00:18:59.062Z,9.80
2019-05-07T00:21:32.655Z,9.70
2019-05-07T00:24:04.639Z,9.70
2019-05-07T00:26:36.352Z,9.80
2019-05-07T00:29:08.107Z,9.80
2019-05-07T00:31:41.952Z,10.00
2019-05-07T00:34:15.424Z,10.10
2019-05-07T00:36:52.559Z,10.20
2019-05-07T00:39:52.898Z,10.30
2019-05-07T00:42:43.421Z,10.40
2019-05-07T00:45:24.096Z,10.60
2019-05-07T00:47:55.632Z,10.80
2019-05-07T00:50:33.132Z,10.90
2019-05-07T00:53:04.749Z,11.00
2019-05-07T00:55:36.738Z,11.20
2019-05-07T00:58:09.061Z,11.30
2019-05-07T01:00:42.078Z,11.40
2019-05-07T01:03:14.110Z,11.60
2019-05-07T01:05:45.903Z,11.70
2019-05-07T01:08:27.615Z,11.80
2019-05-07T01:11:02.135Z,11.80
2019-05-07T01:13:33.899Z,11.90
2019-05-07T01:16:05.404Z,11.90
2019-05-07T01:18:37.071Z,11.90
2019-05-07T01:21:08.679Z,11.90
2019-05-07T01:23:42.744Z,11.90
2019-05-07T01:26:15.805Z,12.00
2019-05-07T01:28:59.608Z,12.00
2019-05-07T01:31:37.618Z,12.00
2019-05-07T01:34:28.422Z,12.00
2019-05-07T01:37:02.758Z,12.00
2019-05-07T01:39:35.114Z,12.00
2019-05-07T01:42:06.747Z,12.00
2019-05-07T01:44:41.875Z,12.00
2019-05-07T01:47:13.104Z,11.90
2019-05-07T01:49:44.575Z,11.70
2019-05-07T01:52:16.179Z,11.60
2019-05-07T01:54:48.838Z,11.50
2019-05-07T01:57:22.949Z,11.30
2019-05-07T01:59:54.830Z,11.20
2019-05-07T02:02:34.013Z,11.10
2019-05-07T02:05:27.633Z,11.10
2019-05-07T02:08:06.270Z,11.10
2019-05-07T02:10:52.329Z,11.20
2019-05-07T02:13:25.823Z,11.30
2019-05-07T02:16:00.782Z,11.30
2019-05-07T02:18:32.444Z,11.30
2019-05-07T02:21:04.115Z,11.20
2019-05-07T02:23:35.728Z,11.20
2019-05-07T02:26:07.852Z,11.20
2019-05-07T02:28:42.472Z,11.20
2019-05-07T02:31:14.915Z,11.30
2019-05-07T02:33:47.813Z,11.20
2019-05-07T02:36:19.393Z,11.20
2019-05-07T02:39:23.760Z,11.30
2019-05-07T02:41:54.430Z,11.30
2019-05-07T02:44:25.986Z,11.40
2019-05-07T02:47:04.086Z,11.50
2019-05-07T02:49:43.613Z,11.60
2019-05-07T02:52:36.265Z,11.70
2019-05-07T02:55:15.647Z,11.70
2019-05-07T02:57:53.969Z,11.70
2019-05-07T03:00:25.322Z,11.80
2019-05-07T03:02:57.620Z,11.70
2019-05-07T03:05:29.313Z,11.80
2019-05-07T03:08:03.266Z,11.80
2019-05-07T03:10:52.703Z,11.80
2019-05-07T03:13:33.765Z,11.80
2019-05-07T03:16:33.684Z,11.80
2019-05-07T03:18:57.988Z,11.80
2019-05-07T03:22:03.866Z,11.80
2019-05-07T03:24:43.609Z,11.80
2019-05-07T03:27:17.351Z,11.80
2019-05-07T03:30:03.845Z,11.80
2019-05-07T03:32:47.694Z,11.80
2019-05-07T03:35:37.011Z,11.90
2019-05-07T03:38:37.613Z,11.80
2019-05-07T03:41:28.656Z,11.80
2019-05-07T03:44:47.758Z,11.80
2019-05-07T03:47:45.844Z,11.80
2019-05-07T03:50:34.328Z,11.80
2019-05-07T03:53:19.323Z,11.80
2019-05-07T03:56:03.663Z,11.80
2019-05-07T03:59:23.097Z,11.80
2019-05-07T04:02:24.259Z,11.80
2019-05-07T04:05:13.965Z,11.80
2019-05-07T04:11:22.991Z,11.90
2019-05-07T04:13:57.169Z,11.90
2019-05-07T04:16:36.363Z,11.90
2019-05-07T04:19:19.975Z,11.90
2019-05-07T04:22:20.035Z,11.90
2019-05-07T04:25:17.022Z,11.90
2019-05-07T04:28:03.456Z,11.90
2019-05-07T04:30:58.009Z,11.90
2019-05-07T04:36:54.161Z,11.90
2019-05-07T04:39:42.955Z,11.90
2019-05-07T04:42:24.974Z,12.00
2019-05-07T04:45:36.616Z,12.00
2019-05-07T04:48:06.206Z,12.00
2019-05-07T04:50:48.140Z,12.00
2019-05-07T04:53:36.259Z,12.00
2019-05-07T04:56:23.578Z,12.10
2019-05-07T04:59:03.394Z,12.10
2019-05-07T05:06:13.351Z,12.20
2019-05-07T05:09:10.019Z,12.10
2019-05-07T05:12:02.634Z,12.10
2019-05-07T05:14:57.763Z,12.20
2019-05-07T05:17:50.383Z,12.20
2019-05-07T05:20:17.167Z,12.20
2019-05-07T05:26:13.974Z,12.30
2019-05-07T05:29:44.868Z,12.30
2019-05-07T05:32:29.222Z,12.30
2019-05-07T05:35:46.176Z,12.40
2019-05-07T05:39:08.888Z,12.40
2019-05-07T05:41:58.483Z,12.40
2019-05-07T05:45:56.080Z,12.40
2019-05-07T05:52:35.812Z,12.50
2019-05-07T05:55:27.190Z,12.60
2019-05-07T05:59:07.513Z,12.60
2019-05-07T06:02:14.970Z,12.60
2019-05-07T06:05:44.654Z,12.70
2019-05-07T06:08:51.944Z,12.70
2019-05-07T06:11:52.032Z,12.60
2019-05-07T06:15:09.640Z,12.60
2019-05-07T06:18:18.785Z,12.70
2019-05-07T06:21:03.010Z,12.70
2019-05-07T06:23:53.964Z,12.60
2019-05-07T06:26:25.661Z,12.50
2019-05-07T06:28:57.070Z,12.30
2019-05-07T06:31:32.727Z,12.00
2019-05-07T06:34:04.815Z,11.80
2019-05-07T06:36:38.520Z,11.70
2019-05-07T06:39:22.176Z,11.80
2019-05-07T06:42:22.248Z,11.90
2019-05-07T06:45:09.422Z,12.10
2019-05-07T06:47:42.471Z,12.10
2019-05-07T06:50:16.421Z,12.10
2019-05-07T06:53:07.980Z,11.90
2019-05-07T07:02:42.001Z,12.00
2019-05-07T07:05:32.990Z,12.20
2019-05-07T07:08:17.167Z,12.30
2019-05-07T07:11:16.355Z,12.40
2019-05-07T07:13:48.873Z,12.20
2019-05-07T07:16:22.453Z,12.20
2019-05-07T07:18:55.743Z,12.10
2019-05-07T07:21:39.159Z,12.20
2019-05-07T07:24:12.859Z,12.20
2019-05-07T07:26:44.582Z,12.30
2019-05-07T07:29:18.341Z,12.30
2019-05-07T07:31:54.891Z,12.20
2019-05-07T07:34:33.300Z,12.20
2019-05-07T07:37:15.543Z,12.20
2019-05-07T07:39:48.921Z,12.30
2019-05-07T07:42:27.032Z,12.40
2019-05-07T07:45:17.508Z,12.50
2019-05-07T07:48:09.311Z,12.70
2019-05-07T07:50:42.101Z,12.80
2019-05-07T07:53:14.540Z,12.80
2019-05-07T07:56:04.691Z,12.80
2019-05-07T07:58:46.613Z,12.60
2019-05-07T08:01:27.683Z,12.40
2019-05-07T08:03:59.618Z,12.30
2019-05-07T08:06:32.709Z,12.30
2019-05-07T08:09:05.810Z,12.10
2019-05-07T08:11:42.785Z,12.00
2019-05-07T08:14:14.858Z,11.90
2019-05-07T08:16:46.562Z,11.80
2019-05-07T08:19:22.029Z,11.70
2019-05-07T08:21:52.150Z,11.50
2019-05-07T08:24:23.334Z,11.40
2019-05-07T08:26:54.783Z,11.40
2019-05-07T08:29:26.568Z,11.40
2019-05-07T08:32:32.829Z,11.50
2019-05-07T08:35:34.442Z,11.50
2019-05-07T08:38:06.838Z,11.50
2019-05-07T08:40:38.195Z,11.50
2019-05-07T08:43:12.440Z,11.40
2019-05-07T08:46:02.733Z,11.50
2019-05-07T08:48:38.979Z,11.60
2019-05-07T08:51:11.926Z,11.60
2019-05-07T08:53:44.489Z,11.80
2019-05-07T08:56:16.097Z,11.90
2019-05-07T08:58:47.532Z,12.10
2019-05-07T09:01:18.930Z,12.30
2019-05-07T09:03:51.641Z,12.50
2019-05-07T09:06:43.161Z,12.60
2019-05-07T09:09:15.110Z,12.80
2019-05-07T09:11:48.212Z,12.90
2019-05-07T09:14:19.702Z,13.00
2019-05-07T09:20:02.588Z,13.20
2019-05-07T09:22:34.451Z,13.20
2019-05-07T09:25:07.460Z,13.30
2019-05-07T09:27:44.155Z,13.30
2019-05-07T09:30:28.534Z,13.40
2019-05-07T09:33:12.493Z,13.40
2019-05-07T09:35:48.646Z,13.40
2019-05-07T09:38:22.198Z,13.40
2019-05-07T09:40:56.506Z,13.40
2019-05-07T09:43:26.538Z,13.40
2019-05-07T09:45:58.158Z,13.40
2019-05-07T09:48:29.580Z,13.40
2019-05-07T09:51:02.345Z,13.50
2019-05-07T09:53:34.024Z,13.50
2019-05-07T09:56:05.945Z,13.50
2019-05-07T09:58:39.217Z,13.50
2019-05-07T10:01:12.404Z,13.50
2019-05-07T10:03:42.988Z,13.50
2019-05-07T10:06:15.007Z,13.50
2019-05-07T10:08:46.785Z,13.40
2019-05-07T10:11:33.090Z,13.40
2019-05-07T10:14:08.143Z,13.40
2019-05-07T10:16:57.494Z,13.50
2019-05-07T10:19:29.468Z,13.50
2019-05-07T10:22:02.327Z,13.60
2019-05-07T10:24:33.950Z,13.60
2019-05-07T10:27:05.766Z,13.60
2019-05-07T10:29:38.525Z,13.50
2019-05-07T10:32:09.977Z,13.60
2019-05-07T10:34:42.199Z,13.60
2019-05-07T10:37:14.427Z,13.60
2019-05-07T10:39:45.692Z,13.60
2019-05-07T10:42:17.499Z,13.70
2019-05-07T10:44:57.191Z,13.70
2019-05-07T10:47:52.023Z,13.80
2019-05-07T10:50:35.469Z,13.90
2019-05-07T10:52:58.939Z,13.90
2019-05-07T10:55:32.750Z,13.90
2019-05-07T10:58:03.291Z,13.90
2019-05-07T11:00:34.933Z,14.00
2019-05-07T11:03:06.902Z,14.00
2019-05-07T11:05:38.140Z,14.10
2019-05-07T11:08:09.928Z,14.20
2019-05-07T11:10:41.850Z,14.30
2019-05-07T11:13:13.559Z,14.40
2019-05-07T11:15:47.064Z,14.50
2019-05-07T11:18:24.607Z,14.60
2019-05-07T11:20:56.246Z,14.70
2019-05-07T11:23:27.780Z,14.70
2019-05-07T11:25:59.329Z,14.80
2019-05-07T11:28:32.331Z,14.90
2019-05-07T11:31:04.175Z,15.00
2019-05-07T11:33:35.972Z,15.00
2019-05-07T11:36:07.958Z,15.10
2019-05-07T11:38:39.234Z,15.30
2019-05-07T11:41:12.791Z,15.50
2019-05-07T11:44:02.698Z,15.60
2019-05-07T11:46:52.579Z,15.60
2019-05-07T11:49:29.208Z,15.50
2019-05-07T11:52:08.288Z,15.40
2019-05-07T11:54:39.678Z,15.30
2019-05-07T11:57:11.721Z,15.30
2019-05-07T11:59:43.618Z,15.40
2019-05-07T12:02:16.004Z,15.30
2019-05-07T12:04:47.289Z,15.30
2019-05-07T12:07:19.627Z,15.40
2019-05-07T12:09:52.611Z,15.60
2019-05-07T12:12:24.516Z,15.70
2019-05-07T12:14:55.850Z,15.90
2019-05-07T12:17:27.882Z,16.00
2019-05-07T12:20:02.193Z,16.10
2019-05-07T12:22:48.673Z,16.10
2019-05-07T12:25:21.941Z,16.20
2019-05-07T12:27:52.556Z,16.20
2019-05-07T12:30:44.401Z,16.20
2019-05-07T12:33:33.071Z,16.30
2019-05-07T12:36:05.777Z,16.20
2019-05-07T12:38:37.097Z,16.10
2019-05-07T12:41:25.966Z,15.90
2019-05-07T12:43:57.689Z,15.90
2019-05-07T12:46:30.755Z,15.90
2019-05-07T12:49:03.103Z,15.80
2019-05-07T12:51:51.299Z,15.70
2019-05-07T12:54:34.662Z,15.80
2019-05-07T12:57:04.809Z,15.80
2019-05-07T12:59:36.175Z,15.80
2019-05-07T13:02:26.624Z,15.80
2019-05-07T13:04:46.646Z,15.70
2019-05-07T13:07:35.650Z,15.50
2019-05-07T13:10:08.572Z,15.40
2019-05-07T13:12:42.000Z,15.30
2019-05-07T13:15:23.896Z,15.20
2019-05-07T13:17:46.806Z,15.10
2019-05-07T13:20:18.514Z,15.20
2019-05-07T13:22:50.477Z,15.30
2019-05-07T13:25:27.846Z,15.40
2019-05-07T13:27:55.944Z,15.50
2019-05-07T13:30:27.758Z,15.50
2019-05-07T13:33:01.997Z,15.50
2019-05-07T13:35:33.824Z,15.30
2019-05-07T13:38:23.889Z,15.20
2019-05-07T13:41:05.183Z,15.00
2019-05-07T13:43:41.623Z,14.90
2019-05-07T13:46:14.414Z,14.80
2019-05-07T13:48:46.129Z,14.80
2019-05-07T13:51:17.676Z,14.70
2019-05-07T13:53:49.085Z,14.70
2019-05-07T13:56:22.976Z,14.70
2019-05-07T13:59:02.362Z,14.70
2019-05-07T14:01:45.730Z,14.80
2019-05-07T14:04:17.244Z,14.80
2019-05-07T14:06:48.477Z,14.80
2019-05-07T14:09:24.281Z,14.90
2019-05-07T14:11:56.860Z,15.00
2019-05-07T14:14:34.213Z,15.00
2019-05-07T14:17:03.162Z,14.90
2019-05-07T14:19:35.438Z,14.90
2019-05-07T14:22:15.397Z,14.80
2019-05-07T14:24:42.237Z,14.70
2019-05-07T14:27:14.525Z,14.70
2019-05-07T14:29:46.254Z,14.80
2019-05-07T14:32:52.567Z,14.70
2019-05-07T14:35:29.636Z,14.70
2019-05-07T14:38:15.126Z,14.70
2019-05-07T14:40:46.561Z,14.70
2019-05-07T14:43:27.970Z,14.70
2019-05-07T14:45:59.295Z,14.60
2019-05-07T14:48:30.661Z,14.60
2019-05-07T14:51:02.434Z,14.60
2019-05-07T14:53:34.259Z,14.50
2019-05-07T14:56:06.829Z,14.60
2019-05-07T14:58:38.491Z,14.60
2019-05-07T15:01:11.770Z,14.50
2019-05-07T15:03:42.415Z,14.50
2019-05-07T15:06:13.521Z,14.50
2019-05-07T15:08:46.382Z,14.60
2019-05-07T15:11:18.206Z,14.80
2019-05-07T15:13:52.067Z,14.90
2019-05-07T15:16:23.073Z,15.00
2019-05-07T15:18:56.230Z,14.90
2019-05-07T15:21:27.682Z,14.90
2019-05-07T15:23:59.745Z,14.80
2019-05-07T15:26:32.607Z,14.70
2019-05-07T15:29:14.419Z,14.70
2019-05-07T15:31:58.317Z,14.60
2019-05-07T15:34:32.816Z,14.60
2019-05-07T15:37:04.689Z,14.70
2019-05-07T15:39:36.021Z,14.70
2019-05-07T15:42:07.330Z,14.70
2019-05-07T16:10:42.764Z,14.30
2019-05-07T16:13:23.515Z,14.30
2019-05-07T16:16:05.076Z,14.30
2019-05-07T16:19:01.914Z,14.20
2019-05-07T16:21:45.569Z,14.30
2019-05-07T16:24:31.799Z,14.30
2019-05-07T16:27:17.255Z,14.30
2019-05-07T16:29:52.643Z,14.30
2019-05-07T16:32:26.277Z,14.30
2019-05-07T16:35:02.581Z,14.30
2019-05-07T16:37:34.429Z,14.40
2019-05-07T16:40:07.822Z,14.30
2019-05-07T16:42:43.697Z,14.30
2019-05-07T16:45:18.528Z,14.30
2019-05-07T16:47:52.153Z,14.30
2019-05-07T16:50:24.624Z,14.30
2019-05-07T16:53:04.511Z,14.40
2019-05-07T16:55:37.416Z,14.40
2019-05-07T16:58:34.526Z,14.40
2019-05-07T17:01:10.366Z,14.40
2019-05-07T17:04:02.695Z,14.40
2019-05-07T17:06:44.177Z,14.40
2019-05-07T17:09:16.874Z,14.30
2019-05-07T17:11:52.720Z,14.30
2019-05-07T17:14:24.937Z,14.40
2019-05-07T17:17:02.430Z,14.40
2019-05-07T17:19:34.938Z,14.40
2019-05-07T17:22:08.946Z,14.40
2019-05-07T17:24:49.559Z,14.40
2019-05-07T17:27:23.903Z,14.40
2019-05-07T17:30:42.112Z,14.40
2019-05-07T17:36:24.612Z,14.40
2019-05-07T17:39:03.560Z,14.40
2019-05-07T17:41:51.745Z,14.40
2019-05-07T17:44:25.565Z,14.40
2019-05-07T17:48:04.418Z,14.50
2019-05-07T17:50:50.802Z,14.50
2019-05-07T17:53:32.164Z,14.50
2019-05-07T17:56:06.404Z,14.50
2019-05-07T17:58:38.298Z,14.50
2019-05-07T18:02:11.289Z,14.60
2019-05-07T18:05:31.728Z,14.50
2019-05-07T18:08:35.271Z,14.50
2019-05-07T18:11:44.571Z,14.50
2019-05-07T18:14:42.227Z,14.40
2019-05-07T18:17:47.545Z,14.40
2019-05-07T18:20:46.840Z,14.50
2019-05-07T18:23:22.296Z,14.50
2019-05-07T18:26:03.741Z,14.50
2019-05-07T18:28:44.593Z,14.50
2019-05-07T18:31:29.117Z,14.60
2019-05-07T18:34:02.786Z,14.60
2019-05-07T18:37:16.164Z,14.60
2019-05-07T18:40:12.841Z,14.70
2019-05-07T18:43:02.864Z,14.70
2019-05-07T18:45:38.535Z,14.70
2019-05-07T18:48:12.015Z,14.70
2019-05-07T18:50:58.480Z,14.70
2019-05-07T18:53:31.851Z,14.70
2019-05-07T18:56:10.097Z,14.70
2019-05-07T18:59:02.167Z,14.80
2019-05-07T19:01:46.348Z,14.80
2019-05-07T19:04:25.314Z,14.80
2019-05-07T19:07:15.128Z,14.80
2019-05-07T19:09:51.704Z,14.70
2019-05-07T19:12:28.175Z,14.70
2019-05-07T19:15:43.694Z,14.70
2019-05-07T19:18:16.475Z,14.70
2019-05-07T19:20:56.325Z,14.70
2019-05-07T19:24:02.549Z,14.70
2019-05-07T19:26:42.209Z,14.70
2019-05-07T19:29:32.833Z,14.70
2019-05-07T19:32:14.115Z,14.70
2019-05-07T19:34:48.381Z,14.70
2019-05-07T19:37:38.964Z,14.70
2019-05-07T19:40:18.637Z,14.80
2019-05-07T19:42:55.769Z,14.80
2019-05-07T19:45:29.491Z,14.80
2019-05-07T19:48:06.064Z,14.80
2019-05-07T19:50:42.831Z,14.80
2019-05-07T19:53:23.849Z,14.80
2019-05-07T19:56:14.512Z,14.80
2019-05-07T19:58:47.179Z,14.90
2019-05-07T20:01:26.692Z,14.90
2019-05-07T20:04:02.417Z,14.90
2019-05-07T20:06:43.379Z,14.80
2019-05-07T20:09:15.934Z,14.80
2019-05-07T20:11:54.006Z,14.90
2019-05-07T20:14:42.173Z,14.90
2019-05-07T20:17:16.465Z,14.80
2019-05-07T20:19:52.634Z,14.90
2019-05-07T20:22:27.531Z,14.80
2019-05-07T20:25:18.543Z,14.90
2019-05-07T20:27:44.180Z,14.90
2019-05-07T20:30:22.891Z,14.90
2019-05-07T20:33:11.188Z,14.90
2019-05-07T20:36:05.182Z,14.80
2019-05-07T20:38:51.950Z,14.80
2019-05-07T20:41:35.637Z,14.90
2019-05-07T20:44:28.816Z,14.90
2019-05-07T20:47:05.451Z,14.90
2019-05-07T20:49:42.780Z,14.80
2019-05-07T20:52:16.573Z,14.80
2019-05-07T20:55:06.229Z,14.80
2019-05-07T20:57:44.798Z,14.80
2019-05-07T21:00:43.399Z,14.70
2019-05-07T21:06:06.627Z,14.80
2019-05-07T21:08:42.877Z,14.80
2019-05-07T21:11:17.511Z,14.80
2019-05-07T21:13:55.840Z,14.80
2019-05-07T21:16:33.905Z,14.80
2019-05-07T21:19:12.596Z,14.80
2019-05-07T21:21:47.988Z,14.70
2019-05-07T21:24:38.292Z,14.70
2019-05-07T21:27:18.550Z,14.60
2019-05-07T21:30:02.336Z,14.60
2019-05-07T21:33:11.819Z,14.60
2019-05-07T21:35:47.082Z,14.50
2019-05-07T21:38:24.984Z,14.30
2019-05-07T21:41:02.817Z,14.20
2019-05-07T21:43:35.393Z,14.10
2019-05-07T21:46:12.778Z,14.10
2019-05-07T21:49:02.425Z,14.10
2019-05-07T21:52:01.961Z,14.10
2019-05-07T21:54:46.223Z,14.10
2019-05-07T21:57:47.013Z,14.10
2019-05-07T22:00:39.603Z,14.00
2019-05-07T22:03:15.894Z,13.70
2019-05-07T22:05:48.060Z,13.50
2019-05-07T22:08:22.806Z,13.40
2019-05-07T22:10:55.451Z,13.30
2019-05-07T22:13:28.458Z,13.20
2019-05-07T22:16:12.519Z,13.20
2019-05-07T22:18:42.785Z,13.20
2019-05-07T22:21:14.636Z,13.20
2019-05-07T22:23:47.122Z,13.20
2019-05-07T22:26:23.282Z,13.20
2019-05-07T22:28:54.131Z,13.20
2019-05-07T22:31:44.182Z,13.20
2019-05-07T22:34:27.435Z,13.00
2019-05-07T22:37:00.105Z,13.00
2019-05-07T22:39:39.197Z,13.00
2019-05-07T22:42:13.021Z,13.00
2019-05-07T22:44:44.888Z,12.90
2019-05-07T22:47:22.742Z,12.90
2019-05-07T22:49:54.085Z,12.80
2019-05-07T22:52:26.232Z,12.80
2019-05-07T22:54:58.196Z,12.60
2019-05-07T22:57:47.203Z,12.60
2019-05-07T23:00:28.233Z,12.70
2019-05-07T23:03:03.510Z,12.70
2019-05-07T23:05:35.275Z,12.70
2019-05-07T23:08:07.248Z,12.70
2019-05-07T23:10:39.144Z,12.60
2019-05-07T23:13:13.123Z,12.50
2019-05-07T23:15:45.438Z,12.40
2019-05-07T23:18:17.586Z,12.20
2019-05-07T23:20:49.795Z,12.10
2019-05-07T23:23:21.864Z,11.90
2019-05-07T23:25:53.619Z,11.90
2019-05-07T23:28:25.191Z,11.80
2019-05-07T23:30:56.870Z,11.80
2019-05-07T23:33:28.659Z,11.80
2019-05-07T23:36:02.156Z,11.80
2019-05-07T23:38:33.700Z,11.90
2019-05-07T23:41:26.063Z,12.10
2019-05-07T23:44:12.654Z,12.30
2019-05-07T23:46:45.271Z,12.50
2019-05-07T23:49:17.163Z,12.60
2019-05-07T23:51:48.700Z,12.70
2019-05-07T23:54:22.675Z,12.90
2019-05-07T23:57:05.916Z,12.90
2019-05-07T23:59:27.243Z,12.90
